createdAt,value
2023-02-15T00:01:43.414Z,32.28
2023-02-15T00:04:10.804Z,30.60
2023-02-15T00:06:37.228Z,32.40
2023-02-15T00:09:04.071Z,30.55
2023-02-15T00:11:51.077Z,32.70
2023-02-15T00:14:21.474Z,29.05
2023-02-15T00:16:49.452Z,33.15
2023-02-15T00:19:20.848Z,35.80
2023-02-15T00:21:48.635Z,29.67
2023-02-15T00:24:16.865Z,32.97
2023-02-15T00:26:44.476Z,30.83
2023-02-15T00:29:12.181Z,32.80
2023-02-15T00:31:38.926Z,31.70
2023-02-15T00:34:18.842Z,35.00
2023-02-15T00:36:45.862Z,37.45
2023-02-15T00:39:15.408Z,33.55
2023-02-15T00:41:42.353Z,34.10
2023-02-15T00:44:09.006Z,34.50
2023-02-15T00:46:35.913Z,33.00
2023-02-15T00:49:02.711Z,35.60
2023-02-15T00:51:29.529Z,32.67
2023-02-15T00:53:56.147Z,36.28
2023-02-15T00:56:23.101Z,33.92
2023-02-15T00:58:49.504Z,32.80
2023-02-15T01:01:18.857Z,34.78
2023-02-15T01:03:47.341Z,34.00
2023-02-15T01:06:15.445Z,33.97
2023-02-15T01:08:45.262Z,35.13
2023-02-15T01:11:15.462Z,33.95
2023-02-15T01:13:42.635Z,34.08
2023-02-15T01:16:09.591Z,36.15
2023-02-15T01:18:36.885Z,35.13
2023-02-15T01:21:30.114Z,35.20
2023-02-15T01:23:56.523Z,37.72
2023-02-15T01:26:22.965Z,36.67
2023-02-15T01:28:49.548Z,33.88
2023-02-15T01:31:19.274Z,33.70
2023-02-15T01:33:46.908Z,34.50
2023-02-15T01:36:14.173Z,36.38
2023-02-15T01:38:40.942Z,34.70
2023-02-15T01:41:27.070Z,37.90
2023-02-15T01:44:01.963Z,35.35
2023-02-15T01:46:36.444Z,34.55
2023-02-15T01:49:26.841Z,37.13
2023-02-15T01:51:53.796Z,40.30
2023-02-15T01:54:27.082Z,36.70
2023-02-15T01:56:57.352Z,37.95
2023-02-15T01:59:25.563Z,34.65
2023-02-15T02:01:58.815Z,36.72
2023-02-15T02:04:51.523Z,36.88
2023-02-15T02:07:21.980Z,34.00
2023-02-15T02:09:49.146Z,38.35
2023-02-15T02:12:18.764Z,33.92
2023-02-15T02:14:47.434Z,36.50
2023-02-15T02:17:23.035Z,37.78
2023-02-15T02:20:16.409Z,36.97
2023-02-15T02:23:14.329Z,37.55
2023-02-15T02:26:24.947Z,40.25
2023-02-15T02:29:19.418Z,38.25
2023-02-15T02:32:04.838Z,38.47
2023-02-15T02:34:39.059Z,38.38
2023-02-15T02:37:35.791Z,39.38
2023-02-15T02:40:29.745Z,35.38
2023-02-15T02:43:06.614Z,42.00
2023-02-15T02:45:40.735Z,35.00
2023-02-15T02:48:14.001Z,34.08
2023-02-15T02:50:41.816Z,36.35
2023-02-15T02:53:12.040Z,38.72
2023-02-15T02:55:45.894Z,34.03
2023-02-15T02:58:21.579Z,37.60
2023-02-15T03:00:54.472Z,38.63
2023-02-15T03:03:30.919Z,37.58
2023-02-15T03:06:05.922Z,38.58
2023-02-15T03:08:43.312Z,39.30
2023-02-15T03:11:10.169Z,37.60
2023-02-15T03:13:36.665Z,36.55
2023-02-15T03:16:26.325Z,38.92
2023-02-15T03:18:58.754Z,38.42
2023-02-15T03:21:32.104Z,33.80
2023-02-15T03:24:05.552Z,39.22
2023-02-15T03:26:35.177Z,42.03
2023-02-15T03:29:04.668Z,39.58
2023-02-15T03:31:36.346Z,36.25
2023-02-15T03:34:07.329Z,39.05
2023-02-15T03:36:45.840Z,37.25
2023-02-15T03:39:19.784Z,35.78
2023-02-15T03:41:58.046Z,41.08
2023-02-15T03:44:30.170Z,41.03
2023-02-15T03:47:14.011Z,36.72
2023-02-15T03:49:49.511Z,38.20
2023-02-15T03:52:17.324Z,35.97
2023-02-15T03:54:44.593Z,36.20
2023-02-15T03:57:41.783Z,37.45
2023-02-15T04:00:36.836Z,36.70
2023-02-15T04:03:29.857Z,35.92
2023-02-15T04:05:56.312Z,35.93
2023-02-15T04:08:42.800Z,36.78
2023-02-15T04:11:09.322Z,37.30
2023-02-15T04:13:36.648Z,37.58
2023-02-15T04:16:07.077Z,38.63
2023-02-15T04:19:00.006Z,41.05
2023-02-15T04:21:46.749Z,38.85
2023-02-15T04:24:33.194Z,38.95
2023-02-15T04:27:00.411Z,38.70
2023-02-15T04:29:28.241Z,36.72
2023-02-15T04:31:56.720Z,42.10
2023-02-15T04:34:23.432Z,41.15
2023-02-15T04:36:51.094Z,40.72
2023-02-15T04:39:18.869Z,42.88
2023-02-15T04:41:45.553Z,37.13
2023-02-15T04:44:12.313Z,37.30
2023-02-15T04:46:38.743Z,39.78
2023-02-15T04:49:05.139Z,41.15
2023-02-15T04:51:31.916Z,39.53
2023-02-15T04:53:58.324Z,35.40
2023-02-15T04:56:25.261Z,40.38
2023-02-15T04:58:51.689Z,36.33
2023-02-15T05:01:18.342Z,38.13
2023-02-15T05:03:44.778Z,40.28
2023-02-15T05:06:11.727Z,35.50
2023-02-15T05:08:38.216Z,40.17
2023-02-15T05:11:05.145Z,37.83
2023-02-15T05:13:31.945Z,40.30
2023-02-15T05:15:58.406Z,39.17
2023-02-15T05:18:24.862Z,41.08
2023-02-15T05:20:51.413Z,38.33
2023-02-15T05:23:17.835Z,41.70
2023-02-15T05:26:09.970Z,35.83
2023-02-15T05:28:37.600Z,36.78
2023-02-15T05:31:08.073Z,40.33
2023-02-15T05:33:35.076Z,38.75
2023-02-15T05:36:02.637Z,37.55
2023-02-15T05:38:29.335Z,41.40
2023-02-15T05:40:55.879Z,38.45
2023-02-15T05:43:23.173Z,38.35
2023-02-15T05:45:54.386Z,38.70
2023-02-15T05:48:22.487Z,39.28
2023-02-15T05:51:01.772Z,39.17
2023-02-15T05:53:29.328Z,38.28
2023-02-15T05:56:00.277Z,42.47
2023-02-15T05:58:28.231Z,42.47
2023-02-15T06:00:54.738Z,43.08
2023-02-15T06:03:21.727Z,41.92
2023-02-15T06:05:48.286Z,41.88
2023-02-15T06:08:14.660Z,41.90
2023-02-15T06:10:41.115Z,38.95
2023-02-15T06:13:07.693Z,37.97
2023-02-15T06:15:34.368Z,40.67
2023-02-15T06:18:01.402Z,40.35
2023-02-15T06:20:27.855Z,39.97
2023-02-15T06:22:54.274Z,38.10
2023-02-15T06:25:20.759Z,34.80
2023-02-15T06:27:47.179Z,37.85
2023-02-15T06:30:14.309Z,39.13
2023-02-15T06:32:41.448Z,37.15
2023-02-15T06:35:08.299Z,41.65
2023-02-15T06:37:34.700Z,38.72
2023-02-15T06:40:03.648Z,43.90
2023-02-15T06:42:30.854Z,39.75
2023-02-15T06:44:57.358Z,40.65
2023-02-15T06:47:23.839Z,43.38
2023-02-15T06:49:50.214Z,40.33
2023-02-15T06:52:16.620Z,36.35
2023-02-15T06:54:43.008Z,40.00
2023-02-15T06:57:10.409Z,39.63
2023-02-15T06:59:36.972Z,36.75
2023-02-15T07:02:03.448Z,38.42
2023-02-15T07:04:30.923Z,42.42
2023-02-15T07:06:57.413Z,34.72
2023-02-15T07:09:24.170Z,37.88
2023-02-15T07:12:09.504Z,39.13
2023-02-15T07:14:36.276Z,36.85
2023-02-15T07:17:02.815Z,35.42
2023-02-15T07:19:29.231Z,37.00
2023-02-15T07:21:55.654Z,37.97
2023-02-15T07:24:22.102Z,38.10
2023-02-15T07:26:48.493Z,36.15
2023-02-15T07:29:15.363Z,38.63
2023-02-15T07:31:43.054Z,36.40
2023-02-15T07:34:09.586Z,32.60
2023-02-15T07:36:36.047Z,38.65
2023-02-15T07:39:02.655Z,35.30
2023-02-15T07:41:29.152Z,34.58
2023-02-15T07:43:55.558Z,37.22
2023-02-15T07:46:22.453Z,31.55
2023-02-15T07:48:48.945Z,33.80
2023-02-15T07:51:15.797Z,32.67
2023-02-15T07:53:42.779Z,35.00
2023-02-15T07:56:14.302Z,33.30
2023-02-15T07:58:53.105Z,35.38
2023-02-15T08:01:25.792Z,35.42
2023-02-15T08:03:53.442Z,35.70
2023-02-15T08:06:22.462Z,34.83
2023-02-15T08:08:48.937Z,34.45
2023-02-15T08:11:35.527Z,38.67
2023-02-15T08:14:03.484Z,33.58
2023-02-15T08:16:46.192Z,32.60
2023-02-15T08:19:21.135Z,34.47
2023-02-15T08:21:54.332Z,33.17
2023-02-15T08:24:23.374Z,32.42
2023-02-15T08:26:50.520Z,35.03
2023-02-15T08:29:19.509Z,29.75
2023-02-15T08:31:48.762Z,31.40
2023-02-15T08:34:18.534Z,31.08
2023-02-15T08:36:48.648Z,33.03
2023-02-15T08:39:15.832Z,33.03
2023-02-15T08:41:47.512Z,30.75
2023-02-15T08:44:16.511Z,38.05
2023-02-15T08:46:44.906Z,37.08
2023-02-15T08:49:14.568Z,35.90
2023-02-15T08:51:41.101Z,33.85
2023-02-15T08:54:10.491Z,31.98
2023-02-15T08:56:39.378Z,30.52
2023-02-15T08:59:06.413Z,34.80
2023-02-15T09:01:34.495Z,29.33
2023-02-15T09:04:05.028Z,32.28
2023-02-15T09:06:32.097Z,31.67
2023-02-15T09:08:58.810Z,29.88
2023-02-15T09:11:27.906Z,30.85
2023-02-15T09:14:03.858Z,32.25
2023-02-15T09:16:32.585Z,31.55
2023-02-15T09:18:59.493Z,31.90
2023-02-15T09:21:27.493Z,28.42
2023-02-15T09:23:58.638Z,31.60
2023-02-15T09:26:25.633Z,29.90
2023-02-15T09:28:56.415Z,30.02
2023-02-15T09:31:26.620Z,30.05
2023-02-15T09:33:53.332Z,32.17
2023-02-15T09:36:28.546Z,32.97
2023-02-15T09:39:16.629Z,30.98
2023-02-15T09:42:10.548Z,27.88
2023-02-15T09:47:42.372Z,30.58
2023-02-15T09:50:32.364Z,28.20
2023-02-15T09:53:30.247Z,28.13
2023-02-15T09:56:20.151Z,29.63
2023-02-15T09:59:12.282Z,25.02
2023-02-15T10:02:07.000Z,27.27
2023-02-15T10:04:48.860Z,29.60
2023-02-15T10:07:37.254Z,27.63
2023-02-15T10:10:41.224Z,23.15
2023-02-15T10:13:34.778Z,28.95
2023-02-15T10:16:35.085Z,25.95
2023-02-15T10:19:11.483Z,30.70
2023-02-15T10:21:49.588Z,30.42
2023-02-15T10:24:48.731Z,30.63
2023-02-15T10:27:22.496Z,29.58
2023-02-15T10:30:10.571Z,27.15
2023-02-15T10:32:53.587Z,25.08
2023-02-15T10:35:43.872Z,24.73
2023-02-15T10:38:30.061Z,27.92
2023-02-15T10:41:35.323Z,31.23
2023-02-15T10:44:23.660Z,26.67
2023-02-15T10:47:14.669Z,29.48
2023-02-15T10:49:57.483Z,27.52
2023-02-15T10:52:36.808Z,30.07
2023-02-15T10:55:14.034Z,30.98
2023-02-15T10:58:03.325Z,26.40
2023-02-15T11:00:47.617Z,29.83
2023-02-15T11:03:34.860Z,28.73
2023-02-15T11:06:15.316Z,24.35
2023-02-15T11:08:47.807Z,27.35
2023-02-15T11:11:36.018Z,24.53
2023-02-15T11:14:12.494Z,27.25
2023-02-15T11:16:45.080Z,26.75
2023-02-15T11:19:17.783Z,27.97
2023-02-15T11:21:47.886Z,26.42
2023-02-15T11:24:19.115Z,27.40
2023-02-15T11:26:52.652Z,31.27
2023-02-15T11:29:37.471Z,27.08
2023-02-15T11:32:24.516Z,26.15
2023-02-15T11:35:13.516Z,28.90
2023-02-15T11:38:15.166Z,28.33
2023-02-15T11:40:57.123Z,26.02
2023-02-15T11:43:35.147Z,29.08
2023-02-15T11:46:01.730Z,27.42
2023-02-15T11:48:31.156Z,24.55
2023-02-15T11:50:58.184Z,28.75
2023-02-15T11:53:28.598Z,29.05
2023-02-15T11:55:56.226Z,25.23
2023-02-15T11:58:45.542Z,25.77
2023-02-15T12:01:33.233Z,21.95
2023-02-15T12:04:06.165Z,25.25
2023-02-15T12:06:47.379Z,22.27
2023-02-15T12:09:35.854Z,22.63
2023-02-15T12:12:23.425Z,20.55
2023-02-15T12:15:01.556Z,23.90
2023-02-15T12:17:31.941Z,29.02
2023-02-15T12:20:02.701Z,23.40
2023-02-15T12:22:33.089Z,20.52
2023-02-15T12:25:02.935Z,21.58
2023-02-15T12:27:33.125Z,23.10
2023-02-15T12:30:17.511Z,22.30
2023-02-15T12:33:17.362Z,20.58
2023-02-15T12:35:45.050Z,19.65
2023-02-15T12:38:11.370Z,21.88
2023-02-15T12:40:40.943Z,20.40
2023-02-15T12:43:26.673Z,17.90
2023-02-15T12:45:54.127Z,19.25
2023-02-15T12:48:21.892Z,18.77
2023-02-15T12:50:58.070Z,18.38
2023-02-15T12:53:35.797Z,21.13
2023-02-15T12:56:04.774Z,21.50
2023-02-15T12:58:33.008Z,19.23
2023-02-15T13:01:22.058Z,20.92
2023-02-15T13:03:59.271Z,17.98
2023-02-15T13:06:27.776Z,19.67
2023-02-15T13:09:07.028Z,21.13
2023-02-15T13:11:35.137Z,19.02
2023-02-15T13:14:04.872Z,20.63
2023-02-15T13:16:35.875Z,19.27
2023-02-15T13:19:13.495Z,19.48
2023-02-15T13:21:44.814Z,20.15
2023-02-15T13:24:28.478Z,20.45
2023-02-15T13:27:14.093Z,13.27
2023-02-15T13:29:45.252Z,16.15
2023-02-15T13:32:37.973Z,20.70
2023-02-15T13:35:08.000Z,22.50
2023-02-15T13:38:03.420Z,23.98
2023-02-15T13:40:58.728Z,22.67
2023-02-15T13:43:59.364Z,19.83
2023-02-15T13:46:31.767Z,21.42
2023-02-15T13:49:14.482Z,20.13
2023-02-15T13:52:09.192Z,21.73
2023-02-15T13:54:47.798Z,22.70
2023-02-15T13:57:37.443Z,18.67
2023-02-15T14:00:24.884Z,25.92
2023-02-15T14:02:56.985Z,22.15
2023-02-15T14:05:37.979Z,23.65
2023-02-15T14:08:26.518Z,24.65
2023-02-15T14:11:30.619Z,23.77
2023-02-15T14:17:05.441Z,23.55
2023-02-15T14:20:00.627Z,19.40
2023-02-15T14:22:36.139Z,23.70
2023-02-15T14:25:38.949Z,20.75
2023-02-15T14:28:13.306Z,20.42
2023-02-15T14:30:43.696Z,17.38
2023-02-15T14:33:22.248Z,23.70
2023-02-15T14:35:49.350Z,22.67
2023-02-15T14:38:34.729Z,24.95
2023-02-15T14:41:21.123Z,20.80
2023-02-15T14:43:50.033Z,19.60
2023-02-15T14:46:46.143Z,22.45
2023-02-15T14:49:25.027Z,21.70
2023-02-15T14:51:51.353Z,22.92
2023-02-15T14:54:17.962Z,21.73
2023-02-15T14:57:07.953Z,20.55
2023-02-15T14:59:53.233Z,22.40
2023-02-15T15:02:24.102Z,20.02
2023-02-15T15:05:01.318Z,21.75
2023-02-15T15:07:37.341Z,24.23
2023-02-15T15:10:16.969Z,20.33
2023-02-15T15:12:45.836Z,19.65
2023-02-15T15:15:44.910Z,21.20
2023-02-15T15:18:44.359Z,22.60
2023-02-15T15:21:10.774Z,21.50
2023-02-15T15:23:40.263Z,22.02
2023-02-15T15:26:23.136Z,22.90
2023-02-15T15:28:49.500Z,21.52
2023-02-15T15:31:54.396Z,21.58
2023-02-15T15:35:01.970Z,20.98
2023-02-15T15:37:46.397Z,20.60
2023-02-15T15:40:35.301Z,20.00
2023-02-15T15:43:10.770Z,18.75
2023-02-15T15:46:06.362Z,17.98
2023-02-15T15:48:37.399Z,20.00
2023-02-15T15:51:20.446Z,23.55
2023-02-15T15:53:53.812Z,19.77
2023-02-15T15:56:33.246Z,22.60
2023-02-15T15:59:03.432Z,17.27
2023-02-15T16:01:35.129Z,21.02
2023-02-15T16:04:01.700Z,18.80
2023-02-15T16:06:30.320Z,21.48
2023-02-15T16:08:56.901Z,18.88
2023-02-15T16:11:27.255Z,19.75
2023-02-15T16:13:54.554Z,20.85
2023-02-15T16:16:24.401Z,20.65
2023-02-15T16:18:52.172Z,18.38
2023-02-15T16:21:27.744Z,23.08
2023-02-15T16:24:23.266Z,24.98
2023-02-15T16:27:04.566Z,25.92
2023-02-15T16:29:34.198Z,26.42
2023-02-15T16:32:25.600Z,25.73
2023-02-15T16:34:59.018Z,20.02
2023-02-15T16:40:01.977Z,23.48
2023-02-15T16:42:28.776Z,21.13
2023-02-15T16:45:08.602Z,20.25
2023-02-15T16:47:42.112Z,22.95
2023-02-15T16:50:19.518Z,21.95
2023-02-15T16:52:46.537Z,24.83
2023-02-15T16:55:22.957Z,23.48
2023-02-15T16:57:50.318Z,21.20
2023-02-15T17:00:23.819Z,22.17
2023-02-15T17:03:01.391Z,21.27
2023-02-15T17:05:33.951Z,24.80
2023-02-15T17:08:03.351Z,23.20
2023-02-15T17:10:31.949Z,22.17
2023-02-15T17:13:10.160Z,23.42
2023-02-15T17:15:39.122Z,19.58
2023-02-15T17:18:11.538Z,23.92
2023-02-15T17:20:42.675Z,24.75
2023-02-15T17:23:36.373Z,21.23
2023-02-15T17:26:16.302Z,21.00
2023-02-15T17:28:48.721Z,22.98
2023-02-15T17:31:18.436Z,21.60
2023-02-15T17:33:45.486Z,19.63
2023-02-15T17:36:22.701Z,22.13
2023-02-15T17:38:58.369Z,20.60
2023-02-15T17:41:34.092Z,23.50
2023-02-15T17:44:02.333Z,22.10
2023-02-15T17:46:35.327Z,18.90
2023-02-15T17:49:02.132Z,21.73
2023-02-15T17:51:28.721Z,21.33
2023-02-15T17:54:13.655Z,21.33
2023-02-15T17:56:40.175Z,18.20
2023-02-15T17:59:11.176Z,20.70
2023-02-15T18:02:03.920Z,18.52
2023-02-15T18:04:50.727Z,19.90
2023-02-15T18:07:38.409Z,19.35
2023-02-15T18:10:43.949Z,19.33
2023-02-15T18:13:10.326Z,20.75
2023-02-15T18:15:36.800Z,19.17
2023-02-15T18:18:04.758Z,19.77
2023-02-15T18:20:36.778Z,16.55
2023-02-15T18:23:03.496Z,20.55
2023-02-15T18:25:29.884Z,19.63
2023-02-15T18:27:56.527Z,19.55
2023-02-15T18:30:26.394Z,19.05
2023-02-15T18:32:56.531Z,17.77
2023-02-15T18:35:25.669Z,19.48
2023-02-15T18:37:53.857Z,17.95
2023-02-15T18:40:24.629Z,19.33
2023-02-15T18:42:51.212Z,19.55
2023-02-15T18:45:21.043Z,18.45
2023-02-15T18:47:48.494Z,16.85
2023-02-15T18:50:20.416Z,19.70
2023-02-15T18:52:50.395Z,19.17
2023-02-15T18:55:21.676Z,17.55
2023-02-15T18:57:49.948Z,24.15
2023-02-15T19:00:17.833Z,20.10
2023-02-15T19:02:44.547Z,17.63
2023-02-15T19:05:11.603Z,21.08
2023-02-15T19:07:38.890Z,20.20
2023-02-15T19:10:08.089Z,21.02
2023-02-15T19:12:35.008Z,22.77
2023-02-15T19:15:02.006Z,19.88
2023-02-15T19:17:28.432Z,23.25
2023-02-15T19:19:54.852Z,20.73
2023-02-15T19:22:26.742Z,19.98
2023-02-15T19:24:54.833Z,19.30
2023-02-15T19:27:35.997Z,19.45
2023-02-15T19:30:13.990Z,21.70
2023-02-15T19:32:40.409Z,19.23
2023-02-15T19:35:13.016Z,18.88
2023-02-15T19:37:42.622Z,24.00
2023-02-15T19:40:19.367Z,22.30
2023-02-15T19:42:45.769Z,21.10
2023-02-15T19:45:31.899Z,19.23
2023-02-15T19:48:01.327Z,20.05
2023-02-15T19:50:33.147Z,22.02
2023-02-15T19:53:01.482Z,22.17
2023-02-15T19:55:30.804Z,21.25
2023-02-15T19:57:58.559Z,20.55
2023-02-15T20:00:27.899Z,19.08
2023-02-15T20:02:55.564Z,21.75
2023-02-15T20:05:23.010Z,23.15
2023-02-15T20:07:52.253Z,30.92
2023-02-15T20:10:20.223Z,41.55
2023-02-15T20:12:47.809Z,41.50
2023-02-15T20:15:23.164Z,41.03
2023-02-15T20:17:50.800Z,29.27
2023-02-15T20:20:20.905Z,26.42
2023-02-15T20:22:50.306Z,36.25
2023-02-15T20:25:21.657Z,37.40
2023-02-15T20:27:48.287Z,38.03
2023-02-15T20:30:21.219Z,29.40
2023-02-15T20:32:48.217Z,31.67
2023-02-15T20:35:20.035Z,26.20
2023-02-15T20:37:48.647Z,25.75
2023-02-15T20:40:25.419Z,24.85
2023-02-15T20:42:51.857Z,25.27
2023-02-15T20:45:24.812Z,22.05
2023-02-15T20:47:52.302Z,24.60
2023-02-15T20:50:29.764Z,23.50
2023-02-15T20:52:57.591Z,26.15
2023-02-15T20:55:30.193Z,28.27
2023-02-15T20:57:57.539Z,27.57
2023-02-15T21:00:29.330Z,25.33
2023-02-15T21:02:59.012Z,31.27
2023-02-15T21:05:28.399Z,30.45
2023-02-15T21:07:55.084Z,32.25
2023-02-15T21:10:25.611Z,25.73
2023-02-15T21:12:52.706Z,35.90
2023-02-15T21:15:41.797Z,48.35
2023-02-15T21:18:18.720Z,40.92
2023-02-15T21:20:48.092Z,39.75
2023-02-15T21:23:16.900Z,30.42
2023-02-15T21:25:44.781Z,26.63
2023-02-15T21:28:17.352Z,30.83
2023-02-15T21:30:43.799Z,26.03
2023-02-15T21:33:10.159Z,27.25
2023-02-15T21:35:37.599Z,23.40
2023-02-15T21:38:04.433Z,24.17
2023-02-15T21:40:32.570Z,26.13
2023-02-15T21:43:18.085Z,28.65
2023-02-15T21:46:16.879Z,25.55
2023-02-15T21:48:43.304Z,31.63
2023-02-15T21:51:28.188Z,26.27
2023-02-15T21:53:54.569Z,24.70
2023-02-15T21:56:22.339Z,25.20
2023-02-15T21:58:48.735Z,23.77
2023-02-15T22:01:24.423Z,23.83
2023-02-15T22:03:53.365Z,27.40
2023-02-15T22:06:21.238Z,24.73
2023-02-15T22:08:50.539Z,26.40
2023-02-15T22:11:20.721Z,25.17
2023-02-15T22:13:48.286Z,26.55
2023-02-15T22:16:17.615Z,25.45
2023-02-15T22:18:44.127Z,25.80
2023-02-15T22:21:11.642Z,23.55
2023-02-15T22:23:38.745Z,23.80
2023-02-15T22:26:08.653Z,21.70
2023-02-15T22:28:38.423Z,29.90
2023-02-15T22:31:10.475Z,27.00
2023-02-15T22:33:37.216Z,24.60
2023-02-15T22:36:04.008Z,28.75
2023-02-15T22:38:30.418Z,23.45
2023-02-15T22:41:03.640Z,26.90
2023-02-15T22:43:38.252Z,23.95
2023-02-15T22:46:08.293Z,27.13
2023-02-15T22:48:35.384Z,28.05
2023-02-15T22:51:02.230Z,27.30
2023-02-15T22:53:28.836Z,29.15
2023-02-15T22:55:56.133Z,23.50
2023-02-15T22:58:26.544Z,27.52
2023-02-15T23:00:53.002Z,29.63
2023-02-15T23:03:24.715Z,28.02
2023-02-15T23:05:52.029Z,30.27
2023-02-15T23:08:18.977Z,30.88
2023-02-15T23:10:49.056Z,31.45
2023-02-15T23:13:25.575Z,26.80
2023-02-15T23:15:55.906Z,32.53
2023-02-15T23:18:31.202Z,30.58
2023-02-15T23:21:00.889Z,29.58
2023-02-15T23:23:36.171Z,28.80
2023-02-15T23:26:04.586Z,30.27
2023-02-15T23:28:35.605Z,32.28
2023-02-15T23:31:02.878Z,26.88
2023-02-15T23:33:34.090Z,28.85
2023-02-15T23:36:00.538Z,29.85
2023-02-15T23:38:32.148Z,30.80
2023-02-15T23:41:19.520Z,29.13
2023-02-15T23:43:50.826Z,30.90
2023-02-15T23:46:24.880Z,31.13
2023-02-15T23:48:53.232Z,29.40
2023-02-15T23:51:21.570Z,29.00
2023-02-15T23:53:47.997Z,29.98
2023-02-15T23:56:15.002Z,28.73
2023-02-15T23:58:44.642Z,29.85
